Time;durP1;ratioP1;P1;durP2;ratioP2;P2;SDS_P1;SDS_P2;PMS_P1;PMS_P2;Temp;Humidity;BMP_temperature;BMP_pressure;BME280_temperature;BME280_humidity;BME280_pressure;Samples;Min_cycle;Max_cycle;Signal;HPM_P1;HPM_P2
2021/03/08 00:00:46;;;;;;;20.75;11.55;;;;;;;;;;5093009;28;20027;-68
2021/03/08 00:03:13;;;;;;;23.40;11.15;;;;;;;;;;5092885;28;20027;-68
2021/03/08 00:05:40;;;;;;;20.67;11.82;;;;;;;;;;5093422;28;20545;-68
2021/03/08 00:08:06;;;;;;;22.67;14.15;;;;;;;;;;5091854;28;20035;-69
2021/03/08 00:10:33;;;;;;;20.63;10.50;;;;;;;;;;5092786;28;20103;-68
2021/03/08 00:12:59;;;;;;;28.52;12.45;;;;;;;;;;5092971;28;20039;-68
2021/03/08 00:15:25;;;;;;;17.70;10.10;;;;;;;;;;5093058;28;20024;-68
2021/03/08 00:17:52;;;;;;;19.80;11.13;;;;;;;;;;5092994;28;20017;-69
2021/03/08 00:20:20;;;;;;;22.27;11.55;;;;;;;;;;5093020;28;20092;-68
2021/03/08 00:22:46;;;;;;;17.05;9.48;;;;;;;;;;5091688;28;20024;-69
2021/03/08 00:25:14;;;;;;;17.73;10.65;;;;;;;;;;5092689;28;20057;-68
2021/03/08 00:27:40;;;;;;;15.77;9.50;;;;;;;;;;5093073;28;20039;-68
2021/03/08 00:30:07;;;;;;;20.40;10.60;;;;;;;;;;5092501;28;20028;-68
2021/03/08 00:32:34;;;;;;;17.50;8.70;;;;;;;;;;5092705;28;20043;-66
2021/03/08 00:35:01;;;;;;;23.00;11.20;;;;;;;;;;5092793;28;20230;-67
2021/03/08 00:37:31;;;;;;;20.50;10.38;;;;;;;;;;5092402;28;20020;-69
2021/03/08 00:40:01;;;;;;;19.08;10.10;;;;;;;;;;5092958;28;20423;-67
2021/03/08 00:42:28;;;;;;;22.42;11.63;;;;;;;;;;5092659;28;20099;-67
2021/03/08 00:44:55;;;;;;;27.92;13.77;;;;;;;;;;5092459;28;20016;-66
2021/03/08 00:47:22;;;;;;;32.85;16.08;;;;;;;;;;5092683;28;20028;-66
2021/03/08 00:49:48;;;;;;;28.40;17.20;;;;;;;;;;5092577;28;20024;-67
2021/03/08 00:52:14;;;;;;;24.77;13.38;;;;;;;;;;5090634;28;20527;-66
2021/03/08 00:54:41;;;;;;;26.30;13.45;;;;;;;;;;5092463;28;20108;-66
2021/03/08 00:57:07;;;;;;;23.38;11.23;;;;;;;;;;5092740;28;20032;-66
2021/03/08 00:59:33;;;;;;;21.55;11.75;;;;;;;;;;5092075;28;20021;-66
2021/03/08 01:01:59;;;;;;;18.85;9.98;;;;;;;;;;5092336;28;20048;-69
2021/03/08 01:04:26;;;;;;;20.40;10.13;;;;;;;;;;5092502;28;20024;-68
2021/03/08 01:06:52;;;;;;;23.42;11.00;;;;;;;;;;5092208;28;20066;-68
2021/03/08 01:09:18;;;;;;;19.20;9.90;;;;;;;;;;5092337;28;20028;-69
2021/03/08 01:11:44;;;;;;;19.63;10.70;;;;;;;;;;5092284;28;20020;-68
2021/03/08 01:14:11;;;;;;;22.33;11.57;;;;;;;;;;5092814;28;20028;-68
2021/03/08 01:16:38;;;;;;;25.02;11.50;;;;;;;;;;5096367;28;20082;-68
2021/03/08 01:19:04;;;;;;;29.25;14.15;;;;;;;;;;5096353;28;20024;-69
2021/03/08 01:21:31;;;;;;;29.77;15.98;;;;;;;;;;5095870;28;20030;-68
2021/03/08 01:23:57;;;;;;;25.85;11.65;;;;;;;;;;5096342;28;20103;-68
2021/03/08 01:26:23;;;;;;;27.60;11.88;;;;;;;;;;5095986;28;20035;-68
2021/03/08 01:28:49;;;;;;;19.77;9.50;;;;;;;;;;5096341;28;20035;-68
2021/03/08 01:31:16;;;;;;;18.63;10.02;;;;;;;;;;5094804;28;20107;-68
2021/03/08 01:33:42;;;;;;;24.95;11.73;;;;;;;;;;5095588;28;20503;-68
2021/03/08 01:36:08;;;;;;;23.10;11.82;;;;;;;;;;5096045;28;20213;-68
2021/03/08 01:38:35;;;;;;;26.05;13.15;;;;;;;;;;5094676;28;20030;-67
2021/03/08 01:41:01;;;;;;;25.38;13.32;;;;;;;;;;5094229;28;20447;-67
2021/03/08 01:43:28;;;;;;;22.15;10.32;;;;;;;;;;5095949;28;20526;-67
2021/03/08 01:45:54;;;;;;;17.58;8.95;;;;;;;;;;5095914;28;20028;-67
2021/03/08 01:48:20;;;;;;;26.58;13.57;;;;;;;;;;5094263;28;20539;-67
2021/03/08 01:50:47;;;;;;;28.60;12.45;;;;;;;;;;5094530;28;20469;-67
2021/03/08 01:53:17;;;;;;;20.63;9.82;;;;;;;;;;5094218;28;20157;-67
2021/03/08 01:55:44;;;;;;;17.30;8.70;;;;;;;;;;5094017;28;20333;-67
2021/03/08 01:58:10;;;;;;;17.45;10.13;;;;;;;;;;5095551;28;20205;-67
2021/03/08 02:00:37;;;;;;;17.05;9.40;;;;;;;;;;5095651;28;20032;-67
2021/03/08 02:03:03;;;;;;;19.27;10.00;;;;;;;;;;5095196;28;20098;-67
2021/03/08 02:05:31;;;;;;;21.58;10.98;;;;;;;;;;5095590;28;20054;-67
2021/03/08 02:07:57;;;;;;;17.80;9.63;;;;;;;;;;5095674;28;20024;-67
2021/03/08 02:10:23;;;;;;;23.52;11.15;;;;;;;;;;5094986;28;20027;-67
2021/03/08 02:12:52;;;;;;;19.55;10.63;;;;;;;;;;5095331;28;20032;-67
2021/03/08 02:15:22;;;;;;;20.77;10.77;;;;;;;;;;5094016;28;20024;-67
2021/03/08 02:18:09;;;;;;;19.48;10.48;;;;;;;;;;5094786;28;20027;-67
2021/03/08 02:20:51;;;;;;;19.50;11.02;;;;;;;;;;5093948;28;20107;-67
2021/03/08 02:23:36;;;;;;;18.60;9.80;;;;;;;;;;5093425;28;20034;-67
2021/03/08 02:26:21;;;;;;;22.92;11.48;;;;;;;;;;5094864;28;20031;-67
2021/03/08 02:28:47;;;;;;;18.35;10.35;;;;;;;;;;5093835;28;20020;-67
2021/03/08 02:31:19;;;;;;;24.13;10.60;;;;;;;;;;5094616;28;20024;-66
2021/03/08 02:34:05;;;;;;;17.42;9.70;;;;;;;;;;5094884;28;20036;-67
2021/03/08 02:36:41;;;;;;;18.35;9.90;;;;;;;;;;5092971;28;20028;-67
2021/03/08 02:39:27;;;;;;;18.60;10.27;;;;;;;;;;5094976;28;20076;-67
2021/03/08 02:41:56;;;;;;;20.55;10.20;;;;;;;;;;5093471;28;20094;-67
2021/03/08 02:44:24;;;;;;;18.15;10.00;;;;;;;;;;5094440;28;20030;-67
2021/03/08 02:46:51;;;;;;;15.98;9.80;;;;;;;;;;5093614;28;20024;-67
2021/03/08 02:49:20;;;;;;;20.98;10.63;;;;;;;;;;5094611;28;20503;-67
2021/03/08 02:52:15;;;;;;;22.42;10.45;;;;;;;;;;5093940;28;20040;-67
2021/03/08 02:54:44;;;;;;;20.25;11.02;;;;;;;;;;5081446;28;20042;-68
2021/03/08 02:57:10;;;;;;;21.67;11.77;;;;;;;;;;5094530;28;20109;-68
2021/03/08 02:59:37;;;;;;;18.13;9.32;;;;;;;;;;5092773;28;20031;-67
2021/03/08 03:02:05;;;;;;;19.98;10.48;;;;;;;;;;5094392;28;20048;-68
2021/03/08 03:04:32;;;;;;;18.17;9.65;;;;;;;;;;5093036;28;20026;-67
2021/03/08 03:07:00;;;;;;;19.27;9.50;;;;;;;;;;5094167;28;20101;-67
2021/03/08 03:09:27;;;;;;;17.20;9.80;;;;;;;;;;5094253;28;20020;-67
2021/03/08 03:11:54;;;;;;;23.48;11.07;;;;;;;;;;5092459;28;20032;-67
2021/03/08 03:14:20;;;;;;;20.92;11.50;;;;;;;;;;5094468;28;20099;-67
2021/03/08 03:16:48;;;;;;;20.10;10.63;;;;;;;;;;5094061;28;20054;-67
2021/03/08 03:19:16;;;;;;;24.55;12.65;;;;;;;;;;5093845;28;20419;-67
2021/03/08 03:21:45;;;;;;;25.50;11.90;;;;;;;;;;5094101;28;20024;-67
2021/03/08 03:24:11;;;;;;;22.00;10.98;;;;;;;;;;5094071;28;20487;-67
2021/03/08 03:26:38;;;;;;;18.27;9.75;;;;;;;;;;5093854;28;20028;-67
2021/03/08 03:29:05;;;;;;;21.92;10.02;;;;;;;;;;5093844;28;20048;-67
2021/03/08 03:31:35;;;;;;;28.23;13.88;;;;;;;;;;5093748;28;20070;-67
2021/03/08 03:34:02;;;;;;;28.48;12.75;;;;;;;;;;5093402;28;20054;-66
2021/03/08 03:36:29;;;;;;;20.38;11.25;;;;;;;;;;5093490;28;20023;-67
2021/03/08 03:38:56;;;;;;;18.30;9.93;;;;;;;;;;5093647;28;20028;-67
2021/03/08 03:41:23;;;;;;;25.92;13.52;;;;;;;;;;5093225;28;20027;-67
2021/03/08 03:43:49;;;;;;;23.38;11.52;;;;;;;;;;5093616;28;20028;-68
2021/03/08 03:46:15;;;;;;;22.00;10.02;;;;;;;;;;5093742;28;20024;-68
2021/03/08 03:48:41;;;;;;;20.10;10.35;;;;;;;;;;5093149;28;20476;-67
2021/03/08 03:51:09;;;;;;;21.88;11.98;;;;;;;;;;5093329;28;20054;-67
2021/03/08 03:53:35;;;;;;;26.00;12.93;;;;;;;;;;5092024;28;20515;-67
2021/03/08 03:56:01;;;;;;;25.45;13.30;;;;;;;;;;5093026;28;20027;-68
2021/03/08 03:58:36;;;;;;;28.90;13.43;;;;;;;;;;5092075;28;20016;-67
2021/03/08 04:01:06;;;;;;;19.55;10.98;;;;;;;;;;5091539;28;20024;-67
2021/03/08 04:03:56;;;;;;;20.00;11.02;;;;;;;;;;5093664;28;20348;-67
2021/03/08 04:06:24;;;;;;;22.55;11.88;;;;;;;;;;5093460;28;20016;-67
2021/03/08 04:08:52;;;;;;;23.05;12.40;;;;;;;;;;5091623;28;20031;-67
2021/03/08 04:11:20;;;;;;;21.13;12.85;;;;;;;;;;5093096;28;20470;-67
2021/03/08 04:13:47;;;;;;;20.00;11.80;;;;;;;;;;5093032;28;20344;-67
2021/03/08 04:16:14;;;;;;;24.92;11.35;;;;;;;;;;5092589;28;20028;-67
2021/03/08 04:18:42;;;;;;;18.15;9.27;;;;;;;;;;5093008;28;20073;-67
2021/03/08 04:21:08;;;;;;;21.27;10.70;;;;;;;;;;5092902;28;20384;-67
2021/03/08 04:23:35;;;;;;;22.15;10.82;;;;;;;;;;5092593;28;20020;-67
2021/03/08 04:26:01;;;;;;;21.83;10.05;;;;;;;;;;5093065;28;20379;-67
2021/03/08 04:28:28;;;;;;;22.13;10.57;;;;;;;;;;5093019;28;20020;-67
2021/03/08 04:30:55;;;;;;;20.95;10.93;;;;;;;;;;5092365;28;20104;-67
2021/03/08 04:33:22;;;;;;;21.92;11.93;;;;;;;;;;5092660;28;20035;-67
2021/03/08 04:35:48;;;;;;;20.80;10.45;;;;;;;;;;5092722;28;20353;-67
2021/03/08 04:38:15;;;;;;;30.38;15.45;;;;;;;;;;5090997;28;20111;-67
2021/03/08 04:40:42;;;;;;;27.92;12.40;;;;;;;;;;5091568;28;20050;-67
2021/03/08 04:43:08;;;;;;;21.67;11.25;;;;;;;;;;5092675;28;20017;-67
2021/03/08 04:45:35;;;;;;;27.42;14.07;;;;;;;;;;5092586;28;20049;-67
2021/03/08 04:48:03;;;;;;;24.40;11.90;;;;;;;;;;5092318;28;20016;-67
2021/03/08 04:50:29;;;;;;;30.13;13.95;;;;;;;;;;5092311;28;20437;-67
2021/03/08 04:52:56;;;;;;;36.00;18.85;;;;;;;;;;5092428;28;20055;-68
2021/03/08 04:55:24;;;;;;;28.25;13.85;;;;;;;;;;5092529;28;20103;-68
2021/03/08 04:57:50;;;;;;;27.00;14.70;;;;;;;;;;5092127;28;20036;-67
2021/03/08 05:00:18;;;;;;;25.17;14.05;;;;;;;;;;5092398;28;20020;-67
2021/03/08 05:02:44;;;;;;;23.73;14.20;;;;;;;;;;5091211;28;20036;-67
2021/03/08 05:05:11;;;;;;;26.35;14.90;;;;;;;;;;5091949;28;20495;-67
2021/03/08 05:07:41;;;;;;;18.45;11.40;;;;;;;;;;5092439;28;20132;-67
2021/03/08 05:10:12;;;;;;;27.77;15.45;;;;;;;;;;5092352;28;20020;-67
2021/03/08 05:12:41;;;;;;;24.38;12.88;;;;;;;;;;5090732;28;20070;-68
2021/03/08 05:15:08;;;;;;;27.55;13.70;;;;;;;;;;5091036;28;20511;-68
2021/03/08 05:17:35;;;;;;;24.20;12.77;;;;;;;;;;5091453;28;20564;-68
2021/03/08 05:20:03;;;;;;;21.38;11.77;;;;;;;;;;5091882;28;20024;-68
2021/03/08 05:22:29;;;;;;;26.17;12.75;;;;;;;;;;5092233;28;20097;-68
2021/03/08 05:24:55;;;;;;;20.63;11.38;;;;;;;;;;5090320;28;20028;-68
2021/03/08 05:27:22;;;;;;;22.40;12.73;;;;;;;;;;5089914;28;20022;-68
2021/03/08 05:29:49;;;;;;;22.92;13.25;;;;;;;;;;5090389;28;20026;-69
2021/03/08 05:32:17;;;;;;;33.25;14.88;;;;;;;;;;5090270;28;20488;-69
2021/03/08 05:34:46;;;;;;;21.50;11.23;;;;;;;;;;5089786;28;20024;-69
2021/03/08 05:37:15;;;;;;;25.08;14.13;;;;;;;;;;5090130;28;20027;-66
2021/03/08 05:39:42;;;;;;;23.02;14.05;;;;;;;;;;5091362;28;20028;-67
2021/03/08 05:42:12;;;;;;;25.10;13.70;;;;;;;;;;5092112;28;20085;-67
2021/03/08 05:44:44;;;;;;;34.38;15.82;;;;;;;;;;5092066;28;20095;-67
2021/03/08 05:47:29;;;;;;;22.70;12.05;;;;;;;;;;5090405;28;20172;-67
2021/03/08 05:50:01;;;;;;;37.72;21.73;;;;;;;;;;5092148;28;20051;-67
2021/03/08 05:52:44;;;;;;;30.42;17.13;;;;;;;;;;5091882;28;20051;-67
2021/03/08 05:55:23;;;;;;;49.80;23.98;;;;;;;;;;5091785;28;20020;-67
2021/03/08 05:57:55;;;;;;;37.28;20.05;;;;;;;;;;5092010;28;20032;-67
2021/03/08 06:00:26;;;;;;;49.42;21.50;;;;;;;;;;5094090;28;20032;-67
2021/03/08 06:02:54;;;;;;;40.63;21.33;;;;;;;;;;5095342;28;20031;-68
2021/03/08 06:05:54;;;;;;;51.20;25.48;;;;;;;;;;5095552;28;20020;-68
2021/03/08 06:08:39;;;;;;;31.40;17.70;;;;;;;;;;5095245;28;20221;-68
2021/03/08 06:11:07;;;;;;;38.13;17.60;;;;;;;;;;5078892;28;20124;-67
2021/03/08 06:13:38;;;;;;;28.63;15.23;;;;;;;;;;5069129;28;20032;-67
2021/03/08 06:16:06;;;;;;;36.33;18.40;;;;;;;;;;5082868;28;20011;-68
2021/03/08 06:18:34;;;;;;;29.13;17.48;;;;;;;;;;5113909;28;20039;-75
2021/03/08 06:21:01;;;;;;;46.70;22.35;;;;;;;;;;5115143;28;20797;-73
2021/03/08 06:23:28;;;;;;;29.00;17.83;;;;;;;;;;5096188;28;20028;-73
2021/03/08 06:25:55;;;;;;;36.10;19.63;;;;;;;;;;5109640;28;20585;-72
2021/03/08 06:28:22;;;;;;;39.85;21.05;;;;;;;;;;5095615;28;20043;-70
2021/03/08 06:30:50;;;;;;;29.67;17.02;;;;;;;;;;5106948;28;20223;-71
2021/03/08 06:33:16;;;;;;;28.30;15.27;;;;;;;;;;5106140;28;20028;-71
2021/03/08 06:35:42;;;;;;;28.02;15.18;;;;;;;;;;5094345;28;20024;-71
2021/03/08 06:38:09;;;;;;;26.80;14.48;;;;;;;;;;5099692;28;20038;-73
2021/03/08 06:40:35;;;;;;;27.30;15.70;;;;;;;;;;5090093;28;20668;-76
2021/03/08 06:43:01;;;;;;;39.13;19.45;;;;;;;;;;5077323;28;20027;-78
2021/03/08 06:45:27;;;;;;;43.50;20.83;;;;;;;;;;5089589;28;20102;-71
2021/03/08 06:47:55;;;;;;;50.75;21.55;;;;;;;;;;5092812;28;20031;-74
2021/03/08 06:50:21;;;;;;;71.68;36.45;;;;;;;;;;5091687;28;20020;-75
2021/03/08 06:52:48;;;;;;;65.95;33.08;;;;;;;;;;5091307;28;20044;-74
2021/03/08 06:55:14;;;;;;;72.28;34.80;;;;;;;;;;5070097;28;20020;-73
2021/03/08 06:57:42;;;;;;;60.45;30.98;;;;;;;;;;5082203;28;20100;-73
2021/03/08 07:00:12;;;;;;;69.65;32.13;;;;;;;;;;5092844;28;20100;-74
2021/03/08 07:02:42;;;;;;;60.88;31.92;;;;;;;;;;5092178;28;20582;-72
2021/03/08 07:05:10;;;;;;;70.25;31.15;;;;;;;;;;5092873;28;20417;-71
2021/03/08 07:07:56;;;;;;;104.70;58.03;;;;;;;;;;5093078;28;20032;-73
2021/03/08 07:10:35;;;;;;;57.63;31.77;;;;;;;;;;5092836;28;20016;-71
2021/03/08 07:13:01;;;;;;;41.70;24.05;;;;;;;;;;5097724;28;20031;-72
2021/03/08 07:15:27;;;;;;;41.47;22.58;;;;;;;;;;5113117;28;20472;-72
2021/03/08 07:17:54;;;;;;;37.25;23.13;;;;;;;;;;5093086;28;20103;-74
2021/03/08 07:20:20;;;;;;;45.45;24.83;;;;;;;;;;5091640;28;20028;-73
2021/03/08 07:22:50;;;;;;;61.47;32.53;;;;;;;;;;5091863;28;20012;-73
2021/03/08 07:25:23;;;;;;;41.50;22.67;;;;;;;;;;5091228;28;20536;-73
2021/03/08 07:27:52;;;;;;;53.75;26.40;;;;;;;;;;5087645;28;20531;-73
2021/03/08 07:30:20;;;;;;;38.47;20.90;;;;;;;;;;5090024;28;20555;-74
2021/03/08 07:32:53;;;;;;;37.20;19.20;;;;;;;;;;5091655;28;20036;-74
2021/03/08 07:35:32;;;;;;;32.65;17.42;;;;;;;;;;5088252;28;20028;-72
2021/03/08 07:37:58;;;;;;;25.98;14.18;;;;;;;;;;5097620;28;20524;-76
2021/03/08 07:40:24;;;;;;;40.53;21.13;;;;;;;;;;5089022;28;20058;-74
2021/03/08 07:42:51;;;;;;;27.40;16.85;;;;;;;;;;5088595;28;20028;-74
2021/03/08 07:45:18;;;;;;;27.02;15.50;;;;;;;;;;5089347;28;20029;-73
2021/03/08 07:47:44;;;;;;;27.48;13.90;;;;;;;;;;5089264;28;20028;-74
2021/03/08 07:50:27;;;;;;;28.50;16.85;;;;;;;;;;5089986;28;20059;-72
2021/03/08 07:52:56;;;;;;;22.35;12.07;;;;;;;;;;5101123;28;20082;-73
2021/03/08 07:55:34;;;;;;;27.63;17.13;;;;;;;;;;5088909;28;20017;-70
2021/03/08 07:58:01;;;;;;;19.92;12.45;;;;;;;;;;5088212;28;20028;-72
2021/03/08 08:00:28;;;;;;;24.10;14.02;;;;;;;;;;5090143;28;20059;-74
2021/03/08 08:02:54;;;;;;;23.95;13.52;;;;;;;;;;5090051;28;20035;-74
2021/03/08 08:05:20;;;;;;;23.33;11.10;;;;;;;;;;5090464;28;20586;-72
2021/03/08 08:07:47;;;;;;;19.52;9.90;;;;;;;;;;5090346;28;20032;-72
2021/03/08 08:10:16;;;;;;;15.75;9.98;;;;;;;;;;5092062;28;20030;-72
2021/03/08 08:12:43;;;;;;;21.77;12.88;;;;;;;;;;5096984;28;20039;-72
2021/03/08 08:15:10;;;;;;;18.77;11.90;;;;;;;;;;5090586;28;20025;-72
2021/03/08 08:17:36;;;;;;;22.80;13.82;;;;;;;;;;5090558;28;20032;-74
2021/03/08 08:20:06;;;;;;;26.88;12.13;;;;;;;;;;5092274;28;20091;-75
2021/03/08 08:22:34;;;;;;;21.60;11.55;;;;;;;;;;5090105;28;20028;-74
2021/03/08 08:25:02;;;;;;;19.45;10.57;;;;;;;;;;5085921;28;20660;-72
2021/03/08 08:27:28;;;;;;;16.95;10.20;;;;;;;;;;5091787;28;20032;-73
2021/03/08 08:29:59;;;;;;;18.52;11.13;;;;;;;;;;5091586;28;20350;-76
2021/03/08 08:32:25;;;;;;;23.80;13.63;;;;;;;;;;5097153;28;20023;-73
2021/03/08 08:34:53;;;;;;;20.67;12.27;;;;;;;;;;5107493;28;20016;-73
2021/03/08 08:37:20;;;;;;;18.95;10.48;;;;;;;;;;5096161;28;20044;-71
2021/03/08 08:39:52;;;;;;;37.40;18.67;;;;;;;;;;5089342;28;20106;-75
2021/03/08 08:42:20;;;;;;;20.70;12.82;;;;;;;;;;5084060;28;20441;-72
2021/03/08 08:44:50;;;;;;;28.73;12.93;;;;;;;;;;5109547;28;20479;-73
2021/03/08 08:47:22;;;;;;;43.17;20.08;;;;;;;;;;5111101;28;20028;-74
2021/03/08 08:49:53;;;;;;;17.88;10.30;;;;;;;;;;5111427;28;20023;-74
2021/03/08 08:52:39;;;;;;;32.33;18.48;;;;;;;;;;5112046;28;20040;-74
2021/03/08 08:55:06;;;;;;;28.10;13.68;;;;;;;;;;5110923;28;20447;-78
2021/03/08 08:57:32;;;;;;;29.85;18.08;;;;;;;;;;5092521;28;20026;-76
2021/03/08 09:00:19;;;;;;;74.93;36.63;;;;;;;;;;5091473;28;20024;-73
2021/03/08 09:02:45;;;;;;;23.55;13.38;;;;;;;;;;5075199;28;20139;-75
2021/03/08 09:05:30;;;;;;;23.65;11.38;;;;;;;;;;5091064;28;20016;-78
2021/03/08 09:08:16;;;;;;;100.28;48.45;;;;;;;;;;5091347;28;20020;-77
2021/03/08 09:10:42;;;;;;;19.52;12.48;;;;;;;;;;5077599;28;20028;-79
2021/03/08 09:13:10;;;;;;;17.30;10.23;;;;;;;;;;5093109;28;20089;-79
2021/03/08 09:15:36;;;;;;;18.33;11.57;;;;;;;;;;5094125;28;20027;-80
2021/03/08 09:18:05;;;;;;;22.23;12.73;;;;;;;;;;5092771;28;20078;-78
2021/03/08 09:20:32;;;;;;;22.77;11.88;;;;;;;;;;5092512;28;20020;-78
2021/03/08 09:23:01;;;;;;;20.60;11.05;;;;;;;;;;5091134;28;20016;-79
2021/03/08 09:25:27;;;;;;;22.85;10.52;;;;;;;;;;5089857;28;20103;-79
2021/03/08 09:28:00;;;;;;;16.20;9.70;;;;;;;;;;5090198;28;20107;-76
2021/03/08 09:30:46;;;;;;;16.05;10.45;;;;;;;;;;5089952;28;20098;-79
2021/03/08 09:33:13;;;;;;;19.25;10.27;;;;;;;;;;5106500;28;20036;-76
2021/03/08 09:35:44;;;;;;;20.05;11.13;;;;;;;;;;5096034;28;20095;-80
2021/03/08 09:38:12;;;;;;;16.38;9.13;;;;;;;;;;5096891;28;20039;-69
2021/03/08 09:40:40;;;;;;;16.73;10.35;;;;;;;;;;5093086;28;20020;-69
2021/03/08 09:43:21;;;;;;;18.45;11.65;;;;;;;;;;5094170;28;20049;-69
2021/03/08 09:46:06;;;;;;;16.45;10.18;;;;;;;;;;5092144;28;20498;-69
2021/03/08 09:50:26;;;;;;;20.70;10.60;;;;;;;;;;5097153;27;20820;-72
2021/03/08 09:52:55;;;;;;;18.30;11.05;;;;;;;;;;5087532;28;20419;-71
2021/03/08 09:56:07;;;;;;;17.77;11.23;;;;;;;;;;5109809;27;20436;-68
2021/03/08 09:58:33;;;;;;;17.13;10.02;;;;;;;;;;5109325;28;20357;-70
2021/03/08 10:02:16;;;;;;;17.83;9.80;;;;;;;;;;5109743;27;20389;-70
2021/03/08 10:04:43;;;;;;;16.67;10.30;;;;;;;;;;5121008;28;20034;-70
2021/03/08 10:07:09;;;;;;;29.35;19.42;;;;;;;;;;5119076;28;20028;-69
2021/03/08 10:09:35;;;;;;;20.88;13.10;;;;;;;;;;5108415;28;20027;-70
2021/03/08 10:12:02;;;;;;;18.52;11.35;;;;;;;;;;5109797;28;20036;-70
2021/03/08 10:15:52;;;;;;;14.98;9.15;;;;;;;;;;5109004;27;20438;-69
2021/03/08 10:18:26;;;;;;;17.35;11.75;;;;;;;;;;5108251;28;20020;-72
2021/03/08 10:21:02;;;;;;;17.25;10.30;;;;;;;;;;5108631;28;20031;-72
2021/03/08 10:24:53;;;;;;;19.90;12.93;;;;;;;;;;5110475;27;20407;-73
2021/03/08 10:27:19;;;;;;;21.08;11.93;;;;;;;;;;5125002;28;20027;-69
2021/03/08 10:29:45;;;;;;;22.25;13.20;;;;;;;;;;5103204;28;20027;-71
2021/03/08 10:32:47;;;;;;;15.77;10.38;;;;;;;;;;5107951;27;20673;-72
2021/03/08 10:35:13;;;;;;;17.73;10.38;;;;;;;;;;5115523;28;20099;-70
2021/03/08 10:37:40;;;;;;;15.65;10.00;;;;;;;;;;5116848;28;20024;-71
2021/03/08 10:42:10;;;;;;;18.05;10.57;;;;;;;;;;5109484;27;20381;-71
2021/03/08 10:44:36;;;;;;;20.38;12.73;;;;;;;;;;5109821;28;20016;-70
2021/03/08 10:47:11;;;;;;;21.63;13.02;;;;;;;;;;5112097;28;20503;-69
2021/03/08 10:49:51;;;;;;;18.63;11.40;;;;;;;;;;5107208;28;20024;-69
2021/03/08 10:52:17;;;;;;;23.80;15.90;;;;;;;;;;5110336;28;20024;-70
2021/03/08 10:54:45;;;;;;;21.85;12.90;;;;;;;;;;5109461;28;20034;-70
2021/03/08 10:57:12;;;;;;;18.83;11.80;;;;;;;;;;5107562;28;20047;-70
2021/03/08 10:59:45;;;;;;;41.67;22.95;;;;;;;;;;5105665;28;20032;-69
2021/03/08 11:02:14;;;;;;;22.00;13.38;;;;;;;;;;5106179;28;20035;-71
2021/03/08 11:04:41;;;;;;;22.75;13.55;;;;;;;;;;5109475;28;20056;-70
2021/03/08 11:09:29;;;;;;;22.02;12.65;;;;;;;;;;5068963;28;20477;-70
2021/03/08 11:11:55;;;;;;;17.95;11.38;;;;;;;;;;5068719;28;20503;-72
2021/03/08 11:16:15;;;;;;;19.23;12.05;;;;;;;;;;5106822;27;20441;-76
2021/03/08 11:20:19;;;;;;;19.70;12.18;;;;;;;;;;5067667;28;20380;-76
2021/03/08 11:23:05;;;;;;;20.48;11.05;;;;;;;;;;5068286;28;20032;-76
2021/03/08 11:25:41;;;;;;;27.90;13.52;;;;;;;;;;5066317;28;22174;-75
2021/03/08 11:29:40;;;;;;;18.83;11.77;;;;;;;;;;5055372;28;20170;-76
2021/03/08 11:32:36;;;;;;;16.25;11.07;;;;;;;;;;5125966;27;20437;-76
2021/03/08 11:37:11;;;;;;;22.00;13.90;;;;;;;;;;5109317;27;20446;-77
2021/03/08 11:39:41;;;;;;;17.75;11.32;;;;;;;;;;5128877;28;20046;-75
2021/03/08 11:43:39;;;;;;;15.98;8.60;;;;;;;;;;5109928;27;20442;-75
2021/03/08 11:46:59;;;;;;;16.75;9.13;;;;;;;;;;5109781;27;20434;-74
2021/03/08 11:49:26;;;;;;;27.63;15.48;;;;;;;;;;5108549;28;20077;-74
2021/03/08 11:51:53;;;;;;;25.67;15.23;;;;;;;;;;5108424;28;20024;-73
2021/03/08 11:54:19;;;;;;;27.00;13.93;;;;;;;;;;5109463;28;20020;-74
2021/03/08 11:56:45;;;;;;;24.10;16.95;;;;;;;;;;5109578;28;20035;-74
2021/03/08 11:59:12;;;;;;;19.75;11.68;;;;;;;;;;5109342;28;20024;-74
2021/03/08 12:01:38;;;;;;;24.27;12.77;;;;;;;;;;5108276;28;20503;-74
2021/03/08 12:04:04;;;;;;;17.25;9.45;;;;;;;;;;5109757;28;20024;-74
2021/03/08 12:06:30;;;;;;;17.30;11.65;;;;;;;;;;5107907;28;20028;-74
2021/03/08 12:08:57;;;;;;;22.05;12.68;;;;;;;;;;5109539;28;20019;-74
2021/03/08 12:11:23;;;;;;;23.23;12.80;;;;;;;;;;5109536;28;20357;-74
2021/03/08 12:13:49;;;;;;;29.58;16.38;;;;;;;;;;5108965;28;20034;-75
2021/03/08 12:16:15;;;;;;;32.20;21.40;;;;;;;;;;5107843;28;20663;-74
2021/03/08 12:19:38;;;;;;;26.23;16.02;;;;;;;;;;5067589;28;20391;-75
2021/03/08 12:22:05;;;;;;;25.20;16.02;;;;;;;;;;5068517;28;20032;-74
2021/03/08 12:26:05;;;;;;;29.42;17.27;;;;;;;;;;5069737;28;20380;-75
2021/03/08 12:30:29;;;;;;;31.75;18.00;;;;;;;;;;5109669;27;20677;-75
2021/03/08 12:32:56;;;;;;;33.63;20.88;;;;;;;;;;5109884;28;20031;-76
2021/03/08 12:36:53;;;;;;;35.55;22.10;;;;;;;;;;5108750;27;20384;-77
2021/03/08 12:39:19;;;;;;;26.83;16.02;;;;;;;;;;5114600;28;20027;-77
2021/03/08 12:43:11;;;;;;;26.35;17.10;;;;;;;;;;5067697;28;20392;-76
2021/03/08 12:46:41;;;;;;;31.42;19.25;;;;;;;;;;5110146;27;20419;-75
2021/03/08 12:50:26;;;;;;;27.15;17.75;;;;;;;;;;5114214;27;20385;-74
2021/03/08 12:55:23;;;;;;;31.08;19.83;;;;;;;;;;5115483;27;20379;-75
2021/03/08 12:57:49;;;;;;;24.88;15.88;;;;;;;;;;5112524;28;20418;-75
2021/03/08 13:00:16;;;;;;;29.35;17.17;;;;;;;;;;5123237;28;20016;-75
2021/03/08 13:02:42;;;;;;;26.90;15.52;;;;;;;;;;5126190;28;20026;-75
2021/03/08 13:05:09;;;;;;;31.80;18.55;;;;;;;;;;5121276;28;20536;-74
2021/03/08 13:07:35;;;;;;;27.55;16.67;;;;;;;;;;5121117;28;20142;-75
2021/03/08 13:11:38;;;;;;;36.05;19.98;;;;;;;;;;5068290;28;20734;-75
2021/03/08 13:14:26;;;;;;;27.48;16.98;;;;;;;;;;5069288;28;20402;-75
2021/03/08 13:20:56;;;;;;;37.15;20.67;;;;;;;;;;5122098;27;20898;-76
2021/03/08 13:23:23;;;;;;;29.00;18.75;;;;;;;;;;5109468;28;20107;-74
2021/03/08 13:27:21;;;;;;;27.75;18.02;;;;;;;;;;5108233;27;20384;-75
2021/03/08 13:31:24;;;;;;;35.97;21.30;;;;;;;;;;5069115;28;20844;-75
2021/03/08 13:33:50;;;;;;;27.05;15.73;;;;;;;;;;5069613;28;20028;-77
2021/03/08 13:36:16;;;;;;;32.30;18.25;;;;;;;;;;5068227;28;20480;-79
2021/03/08 13:40:52;;;;;;;28.02;18.13;;;;;;;;;;5108055;27;20839;-76
2021/03/08 13:45:03;;;;;;;34.85;21.48;;;;;;;;;;5067493;28;20388;-77
2021/03/08 13:49:34;;;;;;;30.40;18.65;;;;;;;;;;5108721;27;20381;-76
2021/03/08 13:53:47;;;;;;;43.10;23.17;;;;;;;;;;5109754;27;20564;-75
2021/03/08 13:57:45;;;;;;;41.60;23.42;;;;;;;;;;5109443;27;20437;-77
2021/03/08 14:02:12;;;;;;;38.97;24.15;;;;;;;;;;5130738;27;20309;-77
2021/03/08 14:04:38;;;;;;;42.55;24.95;;;;;;;;;;5110227;28;20046;-77
2021/03/08 14:11:02;;;;;;;40.03;22.65;;;;;;;;;;5110192;27;20164;-77
2021/03/08 14:13:28;;;;;;;32.15;20.38;;;;;;;;;;5088101;28;20035;-76
2021/03/08 14:16:33;;;;;;;28.33;17.55;;;;;;;;;;5172309;27;20166;-76
2021/03/08 14:19:00;;;;;;;34.50;18.75;;;;;;;;;;5151429;27;20499;-77
2021/03/08 14:22:10;;;;;;;38.22;22.90;;;;;;;;;;5109826;27;20153;-76
2021/03/08 14:24:36;;;;;;;31.88;19.63;;;;;;;;;;5089941;28;20029;-76
2021/03/08 14:27:05;;;;;;;27.60;16.85;;;;;;;;;;5088063;28;20465;-75
2021/03/08 14:32:17;;;;;;;31.85;19.88;;;;;;;;;;5110126;27;20426;-76
2021/03/08 14:34:44;;;;;;;36.00;22.33;;;;;;;;;;5109782;28;20392;-77
2021/03/08 14:37:11;;;;;;;35.13;21.90;;;;;;;;;;5110217;28;20027;-77
2021/03/08 14:42:08;;;;;;;46.13;25.45;;;;;;;;;;5069416;28;20360;-77
2021/03/08 14:44:34;;;;;;;41.60;23.35;;;;;;;;;;5069938;28;20025;-76
2021/03/08 14:47:00;;;;;;;46.92;26.05;;;;;;;;;;5068386;28;20025;-76
2021/03/08 14:50:21;;;;;;;48.35;25.08;;;;;;;;;;5109380;27;20388;-74
2021/03/08 14:52:48;;;;;;;35.20;23.08;;;;;;;;;;5108788;28;20105;-76
2021/03/08 14:55:15;;;;;;;31.52;20.33;;;;;;;;;;5109911;28;20108;-77
2021/03/08 14:57:41;;;;;;;28.92;18.20;;;;;;;;;;5110192;28;20050;-77
2021/03/08 15:00:08;;;;;;;32.80;20.80;;;;;;;;;;5108856;28;20415;-78
2021/03/08 15:02:35;;;;;;;33.50;22.20;;;;;;;;;;5109719;28;20035;-75
2021/03/08 15:05:01;;;;;;;28.70;17.73;;;;;;;;;;5109211;28;20020;-74
2021/03/08 15:07:27;;;;;;;31.67;20.10;;;;;;;;;;5109716;28;20113;-74
2021/03/08 15:09:53;;;;;;;34.28;20.75;;;;;;;;;;5109587;28;20032;-76
2021/03/08 15:12:20;;;;;;;30.88;17.92;;;;;;;;;;5108886;28;20020;-74
2021/03/08 15:14:46;;;;;;;45.85;26.50;;;;;;;;;;5109798;28;20030;-75
2021/03/08 15:17:12;;;;;;;32.97;20.27;;;;;;;;;;5109538;28;20028;-75
2021/03/08 15:19:38;;;;;;;31.70;20.90;;;;;;;;;;5109714;28;20158;-74
2021/03/08 15:22:04;;;;;;;35.72;21.23;;;;;;;;;;5109801;28;20024;-74
2021/03/08 15:24:31;;;;;;;32.40;20.70;;;;;;;;;;5109208;28;20057;-74
2021/03/08 15:26:57;;;;;;;32.83;20.42;;;;;;;;;;5109527;28;20480;-73
2021/03/08 15:29:23;;;;;;;38.88;24.17;;;;;;;;;;5108143;28;20044;-73
2021/03/08 15:31:49;;;;;;;38.92;23.45;;;;;;;;;;5109250;28;20219;-76